Time;durP1;ratioP1;P1;durP2;ratioP2;P2;SDS_P1;SDS_P2;PMS_P1;PMS_P2;Temp;Humidity;BMP_temperature;BMP_pressure;BME280_temperature;BME280_humidity;BME280_pressure;Samples;Min_cycle;Max_cycle;Signal;HPM_P1;HPM_P2
2023/10/21 00:00:33;;;;;;;19.60;14.82;;;;;;;;;;5029814;28;20414;-51
2023/10/21 00:03:01;;;;;;;19.13;16.08;;;;;;;;;;5030564;28;20026;-49
2023/10/21 00:05:27;;;;;;;17.45;14.38;;;;;;;;;;5030643;28;20025;-52
2023/10/21 00:07:53;;;;;;;18.10;14.63;;;;;;;;;;5026880;28;20105;-52
2023/10/21 00:10:19;;;;;;;19.73;14.70;;;;;;;;;;5024440;28;20029;-51
2023/10/21 00:12:45;;;;;;;18.50;14.32;;;;;;;;;;5030705;28;20025;-51
2023/10/21 00:15:12;;;;;;;19.13;14.30;;;;;;;;;;5022791;28;20017;-50
2023/10/21 00:17:38;;;;;;;18.58;14.05;;;;;;;;;;5030643;28;20498;-48
2023/10/21 00:20:08;;;;;;;20.70;14.07;;;;;;;;;;5030392;28;20117;-54
2023/10/21 00:22:35;;;;;;;20.15;14.20;;;;;;;;;;5030732;28;20052;-53
2023/10/21 00:25:01;;;;;;;18.70;14.68;;;;;;;;;;5030697;28;20182;-49
2023/10/21 00:27:27;;;;;;;18.50;14.77;;;;;;;;;;5030629;28;20048;-50
2023/10/21 00:29:53;;;;;;;18.45;14.82;;;;;;;;;;5030316;28;20029;-51
2023/10/21 00:32:19;;;;;;;19.73;14.70;;;;;;;;;;5030304;28;20060;-51
2023/10/21 00:34:45;;;;;;;19.77;15.75;;;;;;;;;;5030333;28;20057;-53
2023/10/21 00:37:11;;;;;;;18.65;15.20;;;;;;;;;;5030199;28;20056;-45
2023/10/21 00:39:38;;;;;;;21.10;14.68;;;;;;;;;;5030026;28;20018;-49
2023/10/21 00:42:05;;;;;;;19.45;14.63;;;;;;;;;;5030125;28;20399;-52
2023/10/21 00:44:31;;;;;;;20.42;15.32;;;;;;;;;;5029188;28;20018;-50
2023/10/21 00:47:00;;;;;;;18.20;14.80;;;;;;;;;;5030186;28;20096;-48
2023/10/21 00:49:30;;;;;;;25.67;15.43;;;;;;;;;;5029852;28;20028;-50
2023/10/21 00:51:56;;;;;;;19.02;15.20;;;;;;;;;;5028607;28;20038;-53
2023/10/21 00:54:26;;;;;;;20.02;15.00;;;;;;;;;;5030205;28;20030;-54
2023/10/21 00:56:52;;;;;;;18.23;14.60;;;;;;;;;;5030219;28;20099;-48
2023/10/21 00:59:18;;;;;;;18.35;14.73;;;;;;;;;;5029994;28;20463;-50
2023/10/21 01:01:45;;;;;;;19.05;14.80;;;;;;;;;;5030013;28;20498;-50
2023/10/21 01:04:12;;;;;;;20.30;14.85;;;;;;;;;;5029914;28;20486;-53
2023/10/21 01:06:38;;;;;;;19.95;14.23;;;;;;;;;;5029966;28;20022;-53
2023/10/21 01:09:04;;;;;;;21.58;14.82;;;;;;;;;;5029625;28;20033;-50
2023/10/21 01:11:30;;;;;;;18.50;14.20;;;;;;;;;;5029834;28;20041;-52
2023/10/21 01:13:56;;;;;;;19.63;14.55;;;;;;;;;;5029849;28;20026;-54
2023/10/21 01:16:23;;;;;;;18.77;14.88;;;;;;;;;;5029404;28;20028;-50
2023/10/21 01:18:49;;;;;;;20.80;15.45;;;;;;;;;;5029655;28;20029;-53
2023/10/21 01:21:15;;;;;;;18.15;15.65;;;;;;;;;;5029388;28;20020;-51
2023/10/21 01:23:41;;;;;;;21.48;15.75;;;;;;;;;;5031055;28;20543;-54
2023/10/21 01:26:07;;;;;;;18.05;15.13;;;;;;;;;;5031690;28;20075;-51
2023/10/21 01:28:33;;;;;;;18.45;15.02;;;;;;;;;;5030441;28;20499;-52
2023/10/21 01:30:59;;;;;;;18.23;15.25;;;;;;;;;;5029572;28;20041;-51
2023/10/21 01:33:25;;;;;;;20.33;15.27;;;;;;;;;;5029571;28;20021;-52
2023/10/21 01:35:51;;;;;;;20.55;14.77;;;;;;;;;;5029515;28;20160;-51
2023/10/21 01:38:20;;;;;;;21.08;14.75;;;;;;;;;;5029382;28;20022;-55
2023/10/21 01:40:47;;;;;;;17.90;14.55;;;;;;;;;;5029352;28;20029;-49
2023/10/21 01:43:13;;;;;;;19.67;14.85;;;;;;;;;;5029613;28;20014;-51
2023/10/21 01:45:40;;;;;;;19.50;15.68;;;;;;;;;;5029612;28;20130;-48
2023/10/21 01:48:06;;;;;;;17.83;14.88;;;;;;;;;;5029553;28;20021;-51
2023/10/21 01:50:32;;;;;;;17.65;15.02;;;;;;;;;;5030090;28;20021;-50
2023/10/21 01:52:58;;;;;;;18.25;14.55;;;;;;;;;;5029572;28;20124;-53
2023/10/21 01:55:25;;;;;;;18.67;14.52;;;;;;;;;;5027349;28;20068;-51
2023/10/21 01:57:51;;;;;;;18.25;14.80;;;;;;;;;;5024812;28;20393;-48
2023/10/21 02:00:20;;;;;;;22.17;15.32;;;;;;;;;;5029611;28;20025;-50
2023/10/21 02:02:54;;;;;;;19.83;15.38;;;;;;;;;;5028642;28;20025;-50
2023/10/21 02:05:20;;;;;;;17.95;14.98;;;;;;;;;;5029765;28;20013;-48
2023/10/21 02:07:46;;;;;;;18.40;14.80;;;;;;;;;;5029888;28;20057;-50
2023/10/21 02:10:12;;;;;;;18.73;15.25;;;;;;;;;;5029227;28;20080;-53
2023/10/21 02:12:38;;;;;;;27.45;15.40;;;;;;;;;;5028011;28;20017;-51
2023/10/21 02:15:11;;;;;;;17.98;15.45;;;;;;;;;;5029384;28;20602;-50
2023/10/21 02:17:38;;;;;;;17.95;15.38;;;;;;;;;;5029276;28;20037;-51
2023/10/21 02:20:04;;;;;;;18.23;14.98;;;;;;;;;;5027946;28;20026;-51
2023/10/21 02:22:30;;;;;;;21.17;16.13;;;;;;;;;;5029207;28;20018;-50
2023/10/21 02:24:56;;;;;;;18.80;15.50;;;;;;;;;;5029172;28;20071;-52
2023/10/21 02:27:22;;;;;;;23.60;15.80;;;;;;;;;;5030710;28;20025;-49
2023/10/21 02:29:49;;;;;;;22.27;15.88;;;;;;;;;;5031695;28;20519;-53
2023/10/21 02:32:15;;;;;;;18.70;15.13;;;;;;;;;;5032792;28;20029;-50
2023/10/21 02:34:41;;;;;;;19.17;14.98;;;;;;;;;;5032803;28;20022;-49
2023/10/21 02:37:08;;;;;;;18.92;15.65;;;;;;;;;;5031526;28;20598;-51
2023/10/21 02:39:34;;;;;;;21.40;15.75;;;;;;;;;;5032608;28;20022;-49
2023/10/21 02:42:00;;;;;;;19.67;15.00;;;;;;;;;;5032608;28;20018;-50
2023/10/21 02:44:27;;;;;;;19.45;14.93;;;;;;;;;;5032703;28;20017;-50
2023/10/21 02:46:53;;;;;;;18.48;14.27;;;;;;;;;;5032549;28;20029;-49
2023/10/21 02:49:19;;;;;;;17.30;13.88;;;;;;;;;;5032669;28;20037;-51
2023/10/21 02:51:45;;;;;;;17.70;14.13;;;;;;;;;;5032710;28;20044;-52
2023/10/21 02:54:11;;;;;;;19.35;14.30;;;;;;;;;;5032788;28;20017;-48
2023/10/21 02:56:37;;;;;;;19.90;14.80;;;;;;;;;;5032452;28;20026;-54
2023/10/21 02:59:03;;;;;;;17.77;14.05;;;;;;;;;;5032197;28;20399;-47
2023/10/21 03:01:29;;;;;;;17.85;14.13;;;;;;;;;;5032152;28;20083;-48
2023/10/21 03:03:55;;;;;;;21.73;15.05;;;;;;;;;;5032089;28;20025;-50
2023/10/21 03:06:21;;;;;;;21.85;14.82;;;;;;;;;;5032211;28;20502;-50
2023/10/21 03:08:48;;;;;;;22.30;15.00;;;;;;;;;;5032110;28;20026;-50
2023/10/21 03:11:14;;;;;;;19.63;15.00;;;;;;;;;;5031897;28;20029;-48
2023/10/21 03:13:40;;;;;;;18.63;14.18;;;;;;;;;;5031790;28;20036;-54
2023/10/21 03:16:10;;;;;;;17.00;14.00;;;;;;;;;;5030568;28;20102;-53
2023/10/21 03:18:37;;;;;;;17.23;14.30;;;;;;;;;;5031855;28;20026;-52
2023/10/21 03:21:04;;;;;;;19.10;13.88;;;;;;;;;;5031725;28;20175;-50
2023/10/21 03:23:30;;;;;;;18.30;13.77;;;;;;;;;;5031897;28;20022;-51
2023/10/21 03:26:03;;;;;;;18.83;14.55;;;;;;;;;;5030214;28;20109;-52
2023/10/21 03:28:30;;;;;;;19.00;14.98;;;;;;;;;;5031621;28;20025;-49
2023/10/21 03:30:56;;;;;;;18.52;14.32;;;;;;;;;;5032833;28;20049;-49
2023/10/21 03:33:23;;;;;;;17.10;14.18;;;;;;;;;;5033389;28;20025;-52
2023/10/21 03:36:00;;;;;;;22.23;14.90;;;;;;;;;;5032144;28;20022;-52
2023/10/21 03:38:26;;;;;;;17.73;15.18;;;;;;;;;;5031262;28;20395;-51
2023/10/21 03:40:55;;;;;;;20.10;14.38;;;;;;;;;;5027618;28;20021;-51
2023/10/21 03:43:21;;;;;;;18.20;14.43;;;;;;;;;;5024458;28;20025;-50
2023/10/21 03:45:47;;;;;;;19.45;15.30;;;;;;;;;;5031272;28;20033;-47
2023/10/21 03:48:13;;;;;;;21.05;15.32;;;;;;;;;;5023435;28;20029;-48
2023/10/21 03:50:39;;;;;;;18.02;14.98;;;;;;;;;;5031228;28;20080;-52
2023/10/21 03:53:05;;;;;;;19.98;15.23;;;;;;;;;;5030906;28;20037;-55
2023/10/21 03:55:31;;;;;;;18.33;15.27;;;;;;;;;;5031349;28;20029;-50
2023/10/21 03:57:57;;;;;;;19.35;16.23;;;;;;;;;;5031058;28;20087;-51
2023/10/21 04:00:23;;;;;;;18.85;15.43;;;;;;;;;;5029649;28;20026;-52
2023/10/21 04:02:50;;;;;;;19.67;15.75;;;;;;;;;;5030896;28;20021;-50
2023/10/21 04:05:17;;;;;;;23.45;15.98;;;;;;;;;;5030897;28;20422;-52
2023/10/21 04:07:46;;;;;;;21.27;16.48;;;;;;;;;;5030523;28;20020;-48
2023/10/21 04:10:12;;;;;;;18.90;16.27;;;;;;;;;;5029399;28;20034;-53
2023/10/21 04:12:39;;;;;;;20.40;16.38;;;;;;;;;;5030753;28;20027;-47
2023/10/21 04:15:05;;;;;;;18.95;15.73;;;;;;;;;;5030832;28;20052;-50
2023/10/21 04:17:31;;;;;;;20.50;16.73;;;;;;;;;;5030642;28;20755;-51
2023/10/21 04:19:57;;;;;;;19.25;16.08;;;;;;;;;;5030419;28;20191;-51
2023/10/21 04:22:23;;;;;;;20.65;16.50;;;;;;;;;;5029337;28;20120;-48
2023/10/21 04:24:49;;;;;;;19.98;15.88;;;;;;;;;;5030514;28;20033;-51
2023/10/21 04:27:15;;;;;;;19.77;15.95;;;;;;;;;;5030561;28;20041;-51
2023/10/21 04:29:41;;;;;;;19.08;15.77;;;;;;;;;;5030368;28;20017;-52
2023/10/21 04:32:07;;;;;;;19.27;15.73;;;;;;;;;;5030223;28;20021;-52
2023/10/21 04:34:33;;;;;;;21.08;16.20;;;;;;;;;;5030673;28;20021;-51
2023/10/21 04:37:00;;;;;;;19.58;16.42;;;;;;;;;;5030342;28;20056;-46
2023/10/21 04:39:28;;;;;;;23.13;16.98;;;;;;;;;;5030338;28;20033;-52
2023/10/21 04:41:54;;;;;;;21.05;16.23;;;;;;;;;;5030290;28;20402;-53
2023/10/21 04:44:20;;;;;;;20.55;17.23;;;;;;;;;;5030380;28;20033;-48
2023/10/21 04:46:46;;;;;;;19.42;16.63;;;;;;;;;;5030546;28;20022;-49
2023/10/21 04:49:13;;;;;;;21.58;17.05;;;;;;;;;;5029761;28;20021;-52
2023/10/21 04:51:40;;;;;;;21.42;18.00;;;;;;;;;;5029054;28;20430;-51
2023/10/21 04:54:07;;;;;;;20.25;17.58;;;;;;;;;;5030117;28;20510;-53
2023/10/21 04:56:33;;;;;;;20.30;17.13;;;;;;;;;;5030242;28;20100;-53
2023/10/21 04:58:59;;;;;;;19.98;16.98;;;;;;;;;;5029792;28;20137;-53
2023/10/21 05:01:25;;;;;;;20.98;16.95;;;;;;;;;;5029836;28;20021;-53
2023/10/21 05:03:51;;;;;;;20.25;16.90;;;;;;;;;;5029908;28;20391;-52
2023/10/21 05:06:17;;;;;;;21.70;17.08;;;;;;;;;;5030182;28;20025;-54
2023/10/21 05:08:43;;;;;;;20.83;17.42;;;;;;;;;;5029967;28;20410;-49
2023/10/21 05:11:09;;;;;;;20.38;17.70;;;;;;;;;;5029627;28;20021;-48
2023/10/21 05:13:35;;;;;;;23.00;17.90;;;;;;;;;;5029762;28;20021;-52
2023/10/21 05:16:01;;;;;;;20.98;17.38;;;;;;;;;;5029785;28;20376;-50
2023/10/21 05:18:27;;;;;;;24.17;17.83;;;;;;;;;;5028597;28;20078;-50
2023/10/21 05:20:53;;;;;;;23.38;18.35;;;;;;;;;;5029507;28;20033;-49
2023/10/21 05:23:19;;;;;;;21.42;18.20;;;;;;;;;;5029645;28;20017;-49
2023/10/21 05:25:45;;;;;;;20.95;18.25;;;;;;;;;;5029861;28;20025;-49
2023/10/21 05:28:11;;;;;;;20.20;18.00;;;;;;;;;;5029608;28;20028;-52
2023/10/21 05:30:39;;;;;;;21.35;17.83;;;;;;;;;;5029313;28;20017;-50
2023/10/21 05:33:05;;;;;;;22.15;18.48;;;;;;;;;;5029524;28;20037;-52
2023/10/21 05:35:32;;;;;;;20.73;17.50;;;;;;;;;;5029831;28;20475;-54
2023/10/21 05:37:57;;;;;;;23.25;19.10;;;;;;;;;;5030364;28;20602;-50
2023/10/21 05:40:25;;;;;;;21.40;17.27;;;;;;;;;;5031108;28;20124;-54
2023/10/21 05:42:51;;;;;;;20.92;18.05;;;;;;;;;;5031459;28;20067;-48
2023/10/21 05:45:17;;;;;;;24.58;17.83;;;;;;;;;;5030019;28;20022;-50
2023/10/21 05:47:43;;;;;;;20.10;17.88;;;;;;;;;;5030388;28;20026;-49
2023/10/21 05:50:09;;;;;;;22.80;17.77;;;;;;;;;;5029594;28;20425;-48
2023/10/21 05:52:35;;;;;;;22.45;17.58;;;;;;;;;;5030353;28;20411;-49
2023/10/21 05:55:04;;;;;;;20.52;17.55;;;;;;;;;;5029733;28;20036;-52
2023/10/21 05:57:30;;;;;;;23.00;18.30;;;;;;;;;;5029848;28;20064;-54
2023/10/21 05:59:56;;;;;;;24.42;18.30;;;;;;;;;;5029242;28;20029;-48
2023/10/21 06:02:22;;;;;;;22.98;17.88;;;;;;;;;;5030685;28;20026;-47
2023/10/21 06:04:48;;;;;;;21.05;17.95;;;;;;;;;;5033132;28;20028;-51
2023/10/21 06:07:14;;;;;;;20.45;17.98;;;;;;;;;;5033118;28;20156;-51
2023/10/21 06:09:40;;;;;;;21.30;18.25;;;;;;;;;;5032976;28;20064;-49
2023/10/21 06:12:06;;;;;;;23.83;19.13;;;;;;;;;;5033016;28;20394;-49
2023/10/21 06:14:33;;;;;;;21.35;17.83;;;;;;;;;;5033029;28;20476;-49
2023/10/21 06:16:59;;;;;;;23.80;18.83;;;;;;;;;;5032781;28;20095;-52
2023/10/21 06:19:25;;;;;;;22.48;19.75;;;;;;;;;;5032876;28;20045;-50
2023/10/21 06:21:52;;;;;;;23.33;19.02;;;;;;;;;;5032753;28;20032;-50
2023/10/21 06:24:18;;;;;;;23.15;19.77;;;;;;;;;;5033129;28;20040;-51
2023/10/21 06:26:44;;;;;;;24.27;20.27;;;;;;;;;;5033047;28;20041;-50
2023/10/21 06:29:11;;;;;;;22.60;19.88;;;;;;;;;;5032636;28;20479;-47
2023/10/21 06:31:36;;;;;;;25.42;21.13;;;;;;;;;;5032927;28;20497;-50
2023/10/21 06:34:02;;;;;;;23.00;20.42;;;;;;;;;;5033065;28;20029;-49
2023/10/21 06:36:28;;;;;;;24.35;19.50;;;;;;;;;;5032814;28;20025;-52
2023/10/21 06:38:54;;;;;;;22.38;19.92;;;;;;;;;;5032582;28;20121;-48
2023/10/21 06:41:21;;;;;;;25.23;19.55;;;;;;;;;;5031373;28;20100;-48
2023/10/21 06:43:47;;;;;;;22.15;19.65;;;;;;;;;;5032629;28;20029;-53
2023/10/21 06:46:13;;;;;;;22.23;19.70;;;;;;;;;;5032294;28;20429;-48
2023/10/21 06:48:39;;;;;;;23.20;19.50;;;;;;;;;;5032684;28;20434;-51
2023/10/21 06:51:05;;;;;;;22.27;19.83;;;;;;;;;;5032122;28;20450;-52
2023/10/21 06:53:31;;;;;;;24.98;20.40;;;;;;;;;;5032258;28;20029;-50
2023/10/21 06:55:58;;;;;;;25.05;21.23;;;;;;;;;;5032443;28;20029;-52
2023/10/21 06:58:26;;;;;;;23.92;21.33;;;;;;;;;;5026742;28;20661;-54
2023/10/21 07:00:52;;;;;;;23.30;20.73;;;;;;;;;;5029242;28;20477;-54
2023/10/21 07:03:18;;;;;;;24.50;20.60;;;;;;;;;;5031896;28;20105;-55
2023/10/21 07:05:45;;;;;;;25.88;23.08;;;;;;;;;;5031901;28;20025;-54
2023/10/21 07:08:11;;;;;;;27.83;23.17;;;;;;;;;;5031881;28;20024;-49
2023/10/21 07:10:39;;;;;;;24.38;21.80;;;;;;;;;;5031833;28;20368;-54
2023/10/21 07:13:05;;;;;;;25.73;23.08;;;;;;;;;;5029915;28;20034;-51
2023/10/21 07:15:31;;;;;;;26.33;22.77;;;;;;;;;;5031852;28;20021;-52
2023/10/21 07:17:57;;;;;;;24.67;22.13;;;;;;;;;;5031656;28;20112;-55
2023/10/21 07:20:25;;;;;;;25.10;21.95;;;;;;;;;;5031637;28;20029;-54
2023/10/21 07:22:51;;;;;;;24.67;21.25;;;;;;;;;;5031789;28;20365;-52
2023/10/21 07:25:18;;;;;;;26.45;23.58;;;;;;;;;;5030638;28;20035;-50
2023/10/21 07:27:44;;;;;;;27.10;24.50;;;;;;;;;;5031991;28;20104;-50
2023/10/21 07:30:10;;;;;;;26.45;23.73;;;;;;;;;;5031637;28;20025;-54
2023/10/21 07:32:36;;;;;;;25.70;22.98;;;;;;;;;;5031596;28;20021;-53
2023/10/21 07:35:03;;;;;;;27.65;24.83;;;;;;;;;;5031582;28;20029;-52
2023/10/21 07:37:30;;;;;;;26.52;23.15;;;;;;;;;;5031460;28;20033;-52
2023/10/21 07:39:58;;;;;;;25.85;23.17;;;;;;;;;;5029903;28;20113;-49
2023/10/21 07:42:24;;;;;;;25.77;23.05;;;;;;;;;;5031423;28;20083;-51
2023/10/21 07:44:50;;;;;;;27.33;24.42;;;;;;;;;;5031162;28;20105;-50
2023/10/21 07:47:16;;;;;;;26.67;23.77;;;;;;;;;;5031269;28;20036;-53
2023/10/21 07:49:42;;;;;;;25.95;23.15;;;;;;;;;;5031390;28;20484;-50
2023/10/21 07:52:09;;;;;;;26.00;23.30;;;;;;;;;;5031369;28;20033;-50
2023/10/21 07:54:37;;;;;;;28.00;23.52;;;;;;;;;;5030998;28;20021;-54
2023/10/21 07:57:03;;;;;;;26.70;24.00;;;;;;;;;;5025216;28;20434;-54
2023/10/21 07:59:29;;;;;;;26.17;23.30;;;;;;;;;;5028556;28;20034;-52
2023/10/21 08:01:55;;;;;;;25.80;23.13;;;;;;;;;;5030752;28;20020;-54
2023/10/21 08:04:21;;;;;;;26.05;23.35;;;;;;;;;;5030916;28;20590;-49
2023/10/21 08:06:47;;;;;;;25.65;22.88;;;;;;;;;;5030878;28;20022;-53
2023/10/21 08:09:15;;;;;;;25.23;22.60;;;;;;;;;;5030604;28;20021;-59
2023/10/21 08:11:41;;;;;;;27.85;24.90;;;;;;;;;;5029554;28;20040;-59
2023/10/21 08:14:07;;;;;;;27.20;24.13;;;;;;;;;;5030653;28;20033;-58
2023/10/21 08:16:34;;;;;;;25.83;23.15;;;;;;;;;;5030910;28;20227;-54
2023/10/21 08:19:01;;;;;;;25.77;23.15;;;;;;;;;;5029324;28;20575;-58
2023/10/21 08:21:27;;;;;;;25.33;22.83;;;;;;;;;;5030347;28;20072;-55
2023/10/21 08:23:53;;;;;;;25.48;22.98;;;;;;;;;;5030467;28;20203;-55
2023/10/21 08:26:19;;;;;;;25.80;23.20;;;;;;;;;;5030432;28;20045;-58
2023/10/21 08:28:45;;;;;;;25.45;22.85;;;;;;;;;;5031322;28;20491;-56
2023/10/21 08:31:11;;;;;;;25.73;23.15;;;;;;;;;;5030188;28;20021;-56
2023/10/21 08:33:37;;;;;;;24.13;21.55;;;;;;;;;;5030451;28;20076;-57
2023/10/21 08:36:03;;;;;;;23.45;21.23;;;;;;;;;;5029011;28;20070;-58
2023/10/21 08:38:29;;;;;;;22.60;20.40;;;;;;;;;;5028889;28;20018;-54
2023/10/21 08:40:56;;;;;;;22.65;20.45;;;;;;;;;;5030200;28;20101;-56
2023/10/21 08:43:22;;;;;;;22.42;20.23;;;;;;;;;;5030327;28;20152;-57
2023/10/21 08:45:49;;;;;;;22.60;20.40;;;;;;;;;;5028992;28;20037;-54
2023/10/21 08:48:16;;;;;;;22.90;20.48;;;;;;;;;;5030151;28;20021;-58
2023/10/21 08:50:48;;;;;;;21.88;19.65;;;;;;;;;;5029795;28;20029;-57
2023/10/21 08:53:15;;;;;;;23.40;21.00;;;;;;;;;;5029822;28;20517;-57
2023/10/21 08:55:41;;;;;;;23.77;21.48;;;;;;;;;;5029549;28;20713;-57
2023/10/21 08:58:07;;;;;;;23.25;20.98;;;;;;;;;;5030020;28;20538;-56
2023/10/21 09:00:34;;;;;;;22.45;20.27;;;;;;;;;;5029769;28;20028;-53
2023/10/21 09:03:01;;;;;;;22.67;20.48;;;;;;;;;;5029812;28;20029;-53
2023/10/21 09:05:28;;;;;;;21.88;19.88;;;;;;;;;;5028757;28;20120;-56
2023/10/21 09:07:54;;;;;;;21.88;19.77;;;;;;;;;;5029833;28;20131;-58
2023/10/21 09:10:21;;;;;;;23.42;21.23;;;;;;;;;;5029822;28;20064;-56
2023/10/21 09:12:47;;;;;;;21.98;19.88;;;;;;;;;;5030102;28;20025;-58
2023/10/21 09:15:13;;;;;;;22.85;20.63;;;;;;;;;;5029953;28;20106;-54
2023/10/21 09:17:41;;;;;;;21.60;19.60;;;;;;;;;;5029626;28;20068;-53
2023/10/21 09:20:11;;;;;;;21.50;19.35;;;;;;;;;;5028798;28;20113;-53
2023/10/21 09:22:37;;;;;;;21.85;19.75;;;;;;;;;;5025430;28;20049;-53
2023/10/21 09:25:10;;;;;;;20.83;18.70;;;;;;;;;;5029687;28;20618;-51
2023/10/21 09:27:38;;;;;;;20.48;18.48;;;;;;;;;;5029734;28;20029;-50
2023/10/21 09:30:04;;;;;;;18.48;16.65;;;;;;;;;;5029597;28;20033;-48
2023/10/21 09:32:30;;;;;;;18.33;16.42;;;;;;;;;;5029395;28;20041;-56
2023/10/21 09:35:16;;;;;;;17.83;16.02;;;;;;;;;;5029318;28;20059;-54
2023/10/21 09:37:43;;;;;;;17.80;15.90;;;;;;;;;;5031880;28;20033;-54
2023/10/21 09:40:09;;;;;;;18.45;16.58;;;;;;;;;;5032907;28;20144;-53
2023/10/21 09:42:41;;;;;;;19.10;16.48;;;;;;;;;;5033270;28;20060;-48
2023/10/21 09:45:07;;;;;;;18.13;16.23;;;;;;;;;;5032725;28;20085;-54
2023/10/21 09:47:37;;;;;;;18.50;16.70;;;;;;;;;;5031128;28;20064;-54
2023/10/21 09:50:06;;;;;;;18.83;16.80;;;;;;;;;;5031522;28;20033;-53
2023/10/21 09:52:31;;;;;;;;;;;;;;;;;;5030865;28;20503;-51
2023/10/21 09:55:10;;;;;;;18.00;16.10;;;;;;;;;;5030494;28;19905;-53
2023/10/21 09:57:40;;;;;;;17.92;16.08;;;;;;;;;;5030304;28;20034;-55
2023/10/21 10:00:08;;;;;;;17.92;16.13;;;;;;;;;;5030710;28;20021;-54
2023/10/21 10:02:37;;;;;;;17.70;15.90;;;;;;;;;;5031705;28;20087;-53
2023/10/21 10:05:07;;;;;;;18.30;16.50;;;;;;;;;;5032095;28;20025;-51
2023/10/21 10:07:36;;;;;;;17.90;16.10;;;;;;;;;;5033159;28;20057;-54
2023/10/21 10:10:06;;;;;;;17.45;15.65;;;;;;;;;;5033847;28;20036;-50
2023/10/21 10:12:35;;;;;;;18.38;16.38;;;;;;;;;;5033726;28;20036;-50
2023/10/21 10:15:21;;;;;;;17.23;15.43;;;;;;;;;;5033587;28;20380;-50
2023/10/21 10:17:50;;;;;;;17.05;15.25;;;;;;;;;;5033274;28;20057;-51
2023/10/21 10:20:22;;;;;;;14.75;10.65;;;;;;;;;;5033099;28;20021;-54
2023/10/21 10:22:49;;;;;;;15.30;10.40;;;;;;;;;;5033102;28;20028;-50
2023/10/21 10:25:24;;;;;;;15.48;10.52;;;;;;;;;;5033122;28;20013;-50
2023/10/21 10:27:56;;;;;;;13.98;9.00;;;;;;;;;;5032806;28;20025;-54
2023/10/21 10:30:22;;;;;;;14.75;8.13;;;;;;;;;;5032695;28;20033;-50
2023/10/21 10:32:52;;;;;;;13.40;7.80;;;;;;;;;;5031394;28;20032;-52
2023/10/21 10:35:30;;;;;;;14.80;8.50;;;;;;;;;;5032670;28;20033;-50
2023/10/21 10:37:57;;;;;;;13.75;8.55;;;;;;;;;;5032406;28;20127;-46
2023/10/21 10:40:36;;;;;;;13.73;8.20;;;;;;;;;;5032687;28;20446;-55
2023/10/21 10:43:03;;;;;;;14.68;8.05;;;;;;;;;;5031274;28;20055;-47
2023/10/21 10:45:32;;;;;;;14.90;8.23;;;;;;;;;;5032800;28;20025;-54
2023/10/21 10:48:00;;;;;;;14.07;8.07;;;;;;;;;;5031325;28;20104;-51
2023/10/21 10:50:26;;;;;;;13.85;8.18;;;;;;;;;;5032415;28;20471;-54
2023/10/21 10:52:56;;;;;;;13.65;8.30;;;;;;;;;;5032307;28;20037;-53
2023/10/21 10:55:22;;;;;;;14.75;8.20;;;;;;;;;;5032342;28;20430;-53
2023/10/21 10:57:51;;;;;;;13.80;8.40;;;;;;;;;;5032127;28;20114;-54
2023/10/21 11:00:20;;;;;;;14.30;7.97;;;;;;;;;;5032200;28;20561;-54
2023/10/21 11:02:48;;;;;;;13.57;7.80;;;;;;;;;;5032256;28;20030;-55
2023/10/21 11:05:20;;;;;;;13.70;7.93;;;;;;;;;;5031138;28;20039;-53
2023/10/21 11:07:46;;;;;;;13.07;7.53;;;;;;;;;;5032212;28;20029;-54
2023/10/21 11:10:14;;;;;;;15.88;8.70;;;;;;;;;;5032314;28;20025;-51
2023/10/21 11:12:40;;;;;;;14.30;8.90;;;;;;;;;;5032282;28;20029;-50
2023/10/21 11:15:07;;;;;;;14.07;8.75;;;;;;;;;;5032188;28;20474;-50
2023/10/21 11:17:33;;;;;;;14.63;8.88;;;;;;;;;;5032145;28;20161;-53
2023/10/21 11:19:59;;;;;;;15.85;9.20;;;;;;;;;;5031776;28;20399;-50
2023/10/21 11:22:26;;;;;;;15.23;9.15;;;;;;;;;;5031728;28;20045;-50
2023/10/21 11:24:52;;;;;;;14.80;9.15;;;;;;;;;;5031814;28;20032;-54
2023/10/21 11:27:18;;;;;;;14.95;8.80;;;;;;;;;;5031875;28;20079;-56
2023/10/21 11:29:44;;;;;;;14.23;8.98;;;;;;;;;;5031304;28;20021;-55
2023/10/21 11:32:11;;;;;;;14.23;9.05;;;;;;;;;;5031465;28;20439;-55
2023/10/21 11:34:37;;;;;;;14.20;9.18;;;;;;;;;;5031591;28;20083;-49
2023/10/21 11:37:04;;;;;;;14.43;9.00;;;;;;;;;;5031665;28;20041;-48
2023/10/21 11:39:33;;;;;;;14.27;8.88;;;;;;;;;;5031857;28;20118;-52
2023/10/21 11:41:59;;;;;;;15.10;9.00;;;;;;;;;;5031001;28;20033;-51
2023/10/21 11:44:32;;;;;;;14.63;9.10;;;;;;;;;;5031405;28;20040;-51
2023/10/21 11:46:58;;;;;;;14.30;9.40;;;;;;;;;;5029455;28;20430;-56
2023/10/21 11:49:26;;;;;;;14.27;9.57;;;;;;;;;;5030991;28;20083;-54
2023/10/21 11:51:54;;;;;;;14.38;9.90;;;;;;;;;;5031129;28;20273;-49
2023/10/21 11:54:39;;;;;;;14.32;9.60;;;;;;;;;;5031398;28;20079;-54
2023/10/21 12:08:51;;;;;;;13.95;9.10;;;;;;;;;;5031105;28;20103;-50
2023/10/21 12:13:40;;;;;;;15.07;8.50;;;;;;;;;;5030653;28;20396;-51
2023/10/21 12:16:33;;;;;;;14.10;8.90;;;;;;;;;;5030824;28;20028;-53
2023/10/21 12:32:43;;;;;;;14.95;9.18;;;;;;;;;;5030031;28;20057;-57
2023/10/21 12:40:32;;;;;;;14.48;9.75;;;;;;;;;;5030380;28;20528;-51
2023/10/21 12:45:46;;;;;;;15.43;10.30;;;;;;;;;;5030079;28;20413;-52
2023/10/21 12:48:17;;;;;;;15.55;10.20;;;;;;;;;;5029499;28;20024;-56
2023/10/21 12:50:44;;;;;;;14.40;9.85;;;;;;;;;;5029846;28;20072;-58
2023/10/21 12:53:10;;;;;;;14.70;9.57;;;;;;;;;;5029894;28;20495;-54
2023/10/21 12:55:39;;;;;;;14.68;9.70;;;;;;;;;;5030382;28;20029;-49
2023/10/21 12:58:05;;;;;;;14.60;9.90;;;;;;;;;;5030291;28;20144;-53
2023/10/21 13:00:32;;;;;;;15.90;9.98;;;;;;;;;;5029645;28;20025;-51
2023/10/21 13:02:58;;;;;;;14.30;9.50;;;;;;;;;;5024704;28;20037;-56
2023/10/21 13:05:24;;;;;;;14.70;10.18;;;;;;;;;;5029859;28;20025;-54
2023/10/21 13:07:50;;;;;;;14.82;10.60;;;;;;;;;;5029456;28;20036;-52
2023/10/21 13:10:17;;;;;;;15.88;10.38;;;;;;;;;;5028827;28;20047;-54
2023/10/21 13:12:43;;;;;;;14.50;10.20;;;;;;;;;;5028983;28;20052;-55
2023/10/21 13:15:12;;;;;;;15.43;10.25;;;;;;;;;;5029126;28;20032;-56
2023/10/21 13:17:38;;;;;;;16.35;10.10;;;;;;;;;;5029120;28;20029;-55
2023/10/21 13:20:05;;;;;;;14.30;10.13;;;;;;;;;;5029302;28;20032;-53
2023/10/21 13:22:34;;;;;;;14.75;10.30;;;;;;;;;;5027082;28;20064;-56
2023/10/21 13:25:07;;;;;;;16.45;10.65;;;;;;;;;;5029069;28;20025;-52
2023/10/21 13:27:33;;;;;;;14.73;10.15;;;;;;;;;;5024553;28;20053;-55
2023/10/21 13:29:59;;;;;;;15.43;10.20;;;;;;;;;;5028342;28;20037;-54
2023/10/21 13:32:27;;;;;;;14.45;10.10;;;;;;;;;;5029076;28;20091;-54
2023/10/21 13:34:54;;;;;;;15.33;10.60;;;;;;;;;;4679804;28;10000445;-55
2023/10/21 13:37:20;;;;;;;15.95;10.50;;;;;;;;;;5026228;28;20014;-54
2023/10/21 13:39:47;;;;;;;16.38;10.60;;;;;;;;;;5026193;28;20376;-55
2023/10/21 13:42:13;;;;;;;15.55;10.40;;;;;;;;;;5026149;28;20141;-53
2023/10/21 13:44:39;;;;;;;14.43;10.10;;;;;;;;;;5026393;28;20026;-54
2023/10/21 13:47:08;;;;;;;15.57;11.27;;;;;;;;;;5026639;28;20025;-56
2023/10/21 13:49:40;;;;;;;16.17;10.70;;;;;;;;;;5026263;28;20025;-53
2023/10/21 13:52:06;;;;;;;16.05;10.80;;;;;;;;;;5026090;28;20041;-56
2023/10/21 13:54:32;;;;;;;14.82;10.93;;;;;;;;;;5026794;28;20370;-55
2023/10/21 13:57:03;;;;;;;16.55;10.50;;;;;;;;;;5028182;28;20037;-52
2023/10/21 13:59:29;;;;;;;16.33;10.75;;;;;;;;;;5028417;28;20100;-57
2023/10/21 14:01:55;;;;;;;14.90;10.55;;;;;;;;;;5028776;28;20030;-55
2023/10/21 14:04:22;;;;;;;14.70;10.30;;;;;;;;;;5029001;28;20021;-56
2023/10/21 14:06:48;;;;;;;15.95;11.18;;;;;;;;;;5029026;28;20048;-54
2023/10/21 14:09:24;;;;;;;15.50;10.10;;;;;;;;;;5029210;28;20018;-53
2023/10/21 14:11:51;;;;;;;16.75;10.32;;;;;;;;;;5029229;28;20125;-50
2023/10/21 14:14:20;;;;;;;15.65;10.40;;;;;;;;;;5021924;28;20030;-56
2023/10/21 14:16:46;;;;;;;17.23;10.63;;;;;;;;;;4674702;28;10000900;-54
2023/10/21 14:19:12;;;;;;;15.50;10.30;;;;;;;;;;5021127;28;20018;-54
2023/10/21 14:21:38;;;;;;;15.77;10.93;;;;;;;;;;5025824;28;20174;-53
2023/10/21 14:24:06;;;;;;;15.07;10.07;;;;;;;;;;5028281;28;20025;-55
2023/10/21 14:26:32;;;;;;;14.85;10.23;;;;;;;;;;5029943;28;20398;-56
2023/10/21 14:28:58;;;;;;;16.02;10.48;;;;;;;;;;5031414;28;20030;-55
2023/10/21 14:31:29;;;;;;;18.83;11.63;;;;;;;;;;5031209;28;20028;-55
2023/10/21 14:33:56;;;;;;;15.60;10.40;;;;;;;;;;5031703;28;20033;-54
2023/10/21 14:36:22;;;;;;;17.33;10.80;;;;;;;;;;5032336;28;20581;-57
2023/10/21 14:38:50;;;;;;;15.88;10.43;;;;;;;;;;5032238;28;20475;-51
2023/10/21 14:41:16;;;;;;;16.33;9.95;;;;;;;;;;5031693;28;20025;-54
2023/10/21 14:43:45;;;;;;;18.38;10.18;;;;;;;;;;5032174;28;20395;-54
2023/10/21 14:46:11;;;;;;;15.98;10.13;;;;;;;;;;5032136;28;20051;-54
2023/10/21 14:48:37;;;;;;;16.48;10.00;;;;;;;;;;5032758;28;20026;-51
2023/10/21 14:51:03;;;;;;;16.05;10.30;;;;;;;;;;5032159;28;20211;-56
2023/10/21 14:53:29;;;;;;;16.85;10.15;;;;;;;;;;5032160;28;20669;-51